createdAt,value
2018-06-02T09:56:32.626Z,1010.27
2018-06-02T09:57:32.599Z,1010.15
2018-06-02T09:58:32.585Z,1010.19
2018-06-02T09:59:32.568Z,1010.17
2018-06-02T10:00:32.572Z,1010.19
2018-06-02T10:01:32.547Z,1010.15
2018-06-02T10:02:32.528Z,1010.21
2018-06-02T10:03:32.515Z,1010.19
2018-06-02T10:04:32.502Z,1010.17
2018-06-02T10:05:32.488Z,1010.21
2018-06-02T10:06:32.487Z,1010.23
2018-06-02T10:07:32.464Z,1010.24
2018-06-02T10:08:32.452Z,1010.21
2018-06-02T10:09:32.439Z,1010.24
2018-06-02T10:10:32.428Z,1010.21
2018-06-02T10:11:32.425Z,1010.27
2018-06-02T10:12:32.402Z,1010.25
2018-06-02T10:13:32.389Z,1010.26
2018-06-02T10:14:32.377Z,1010.24
2018-06-02T10:15:32.369Z,1010.26
2018-06-02T10:16:32.367Z,1010.23
2018-06-02T10:17:32.355Z,1010.23
2018-06-02T10:18:32.335Z,1010.26
2018-06-02T10:19:32.318Z,1010.25
2018-06-02T10:20:32.307Z,1010.26
2018-06-02T10:21:32.300Z,1010.25
2018-06-02T10:22:32.293Z,1010.28
2018-06-02T10:23:32.272Z,1010.28
2018-06-02T10:24:32.260Z,1010.23
2018-06-02T10:25:32.247Z,1010.21
2018-06-02T10:26:32.235Z,1010.22
2018-06-02T10:27:32.244Z,1010.18
2018-06-02T10:28:32.214Z,1010.22
2018-06-02T10:29:32.206Z,1010.21
2018-06-02T10:30:32.191Z,1010.23
2018-06-02T10:31:32.180Z,1010.31
2018-06-02T10:32:32.169Z,1010.24
2018-06-02T10:33:32.165Z,1010.27
2018-06-02T10:34:32.145Z,1010.24
2018-06-02T10:35:32.200Z,1010.23
2018-06-02T10:36:32.124Z,1010.28
2018-06-02T10:37:32.143Z,1010.21
2018-06-02T10:38:32.282Z,1010.25
2018-06-02T10:39:32.093Z,1010.13
2018-06-02T10:40:32.081Z,1010.08
2018-06-02T10:41:32.065Z,1010.06
2018-06-02T10:42:32.070Z,1010.12
2018-06-02T10:43:32.058Z,1010.16
2018-06-02T10:44:32.038Z,1010.10
2018-06-02T10:45:32.024Z,1010.02
2018-06-02T10:46:32.018Z,1010.00
2018-06-02T10:47:32.004Z,1010.12
2018-06-02T10:48:32.008Z,1010.18
2018-06-02T10:49:31.982Z,1010.20
2018-06-02T10:50:31.972Z,1010.22
2018-06-02T10:51:31.960Z,1010.18
2018-06-02T10:52:31.953Z,1010.01
2018-06-02T10:53:31.939Z,1010.03
2018-06-02T10:54:31.943Z,1010.09
2018-06-02T10:55:31.922Z,1010.08
2018-06-02T10:56:31.911Z,1010.13
2018-06-02T10:57:31.901Z,1010.10
2018-06-02T10:58:31.889Z,1010.06
2018-06-02T10:59:31.893Z,1010.04
2018-06-02T11:00:31.869Z,1010.06
2018-06-02T11:01:31.857Z,1010.05
2018-06-02T11:02:31.847Z,1010.04
2018-06-02T11:03:31.836Z,1010.04
2018-06-02T11:04:31.827Z,1010.05
2018-06-02T11:05:31.825Z,1010.04
2018-06-02T11:06:31.807Z,1010.08
2018-06-02T11:07:31.795Z,1010.09
2018-06-02T11:08:31.783Z,1010.13
2018-06-02T11:09:31.772Z,1010.11
2018-06-02T11:10:31.778Z,1010.07
2018-06-02T11:11:31.754Z,1010.07
2018-06-02T11:12:31.743Z,1010.07
2018-06-02T11:13:31.734Z,1010.03
2018-06-02T11:14:31.720Z,1010.07
2018-06-02T11:15:31.726Z,1010.07
2018-06-02T11:16:31.699Z,1010.05
2018-06-02T11:17:31.692Z,1010.01
2018-06-02T11:18:31.677Z,1010.02
2018-06-02T11:19:31.734Z,1010.08
2018-06-02T11:20:31.675Z,1010.05
2018-06-02T11:21:31.644Z,1010.05
2018-06-02T11:22:31.634Z,1010.07
2018-06-02T11:23:31.624Z,1010.05
2018-06-02T11:24:31.615Z,1010.05
2018-06-02T11:25:31.616Z,1010.06
2018-06-02T11:26:31.650Z,1010.08
2018-06-02T11:27:31.580Z,1010.00
2018-06-02T11:28:31.570Z,1010.05
2018-06-02T11:29:31.560Z,1010.06
2018-06-02T11:30:31.552Z,1010.06
2018-06-02T11:31:31.560Z,1010.06
2018-06-02T11:32:31.530Z,1010.13
2018-06-02T11:33:31.512Z,1010.10
2018-06-02T11:34:31.504Z,1010.06
2018-06-02T11:35:31.493Z,1010.08
2018-06-02T11:36:31.483Z,1010.07
2018-06-02T11:37:31.488Z,1010.02
2018-06-02T11:38:31.458Z,1010.04
2018-06-02T11:39:31.450Z,1009.99
2018-06-02T11:40:31.440Z,1010.01
2018-06-02T11:41:31.429Z,1010.04
2018-06-02T11:42:31.435Z,1010.07
2018-06-02T11:43:31.406Z,1010.14
2018-06-02T11:44:31.397Z,1010.27
2018-06-02T11:45:31.384Z,1010.12
2018-06-02T11:46:31.377Z,1010.25
2018-06-02T11:47:31.373Z,1010.08
2018-06-02T11:48:31.354Z,1010.15
2018-06-02T11:49:31.342Z,1010.03
2018-06-02T11:50:31.332Z,1010.02
2018-06-02T11:51:31.321Z,1010.01
2018-06-02T11:52:31.347Z,1010.02
2018-06-02T11:53:31.300Z,1010.05
2018-06-02T11:54:31.288Z,1010.01
2018-06-02T11:55:31.278Z,1010.06
2018-06-02T11:56:31.272Z,1010.06
2018-06-02T11:57:31.259Z,1010.05
2018-06-02T11:58:31.504Z,1010.00
2018-06-02T11:59:31.236Z,1009.99
2018-06-02T12:00:31.224Z,1010.00
2018-06-02T12:01:31.216Z,1009.98
2018-06-02T12:02:31.209Z,1009.99
2018-06-02T12:03:31.196Z,1009.99
2018-06-02T12:04:31.194Z,1010.00
2018-06-02T12:05:31.183Z,1009.91
2018-06-02T12:06:31.162Z,1009.91
2018-06-02T12:07:31.151Z,1009.94
2018-06-02T12:08:31.140Z,1009.95
2018-06-02T12:09:31.142Z,1009.91
2018-06-02T12:10:31.117Z,1009.94
2018-06-02T12:11:31.107Z,1009.95
2018-06-02T12:12:31.098Z,1009.96
2018-06-02T12:13:31.084Z,1009.91
2018-06-02T12:14:31.087Z,1009.92
2018-06-02T12:15:31.065Z,1009.92
2018-06-02T12:16:31.055Z,1009.93
2018-06-02T12:17:31.041Z,1009.93
2018-06-02T12:18:31.032Z,1009.92
2018-06-02T12:19:31.031Z,1009.85
2018-06-02T12:20:31.017Z,1009.89
2018-06-02T12:21:30.998Z,1009.92
2018-06-02T12:22:30.988Z,1009.92
2018-06-02T12:23:30.976Z,1009.86
2018-06-02T12:24:30.981Z,1009.89
2018-06-02T12:25:30.954Z,1009.88
2018-06-02T12:26:30.943Z,1009.88
2018-06-02T12:27:30.933Z,1009.90
2018-06-02T12:28:30.970Z,1009.90
2018-06-02T12:29:30.909Z,1009.90
2018-06-02T12:30:30.919Z,1009.96
2018-06-02T12:31:30.889Z,1009.90
2018-06-02T12:32:30.878Z,1009.92
2018-06-02T12:33:30.867Z,1009.92
2018-06-02T12:34:30.853Z,1009.88
2018-06-02T12:35:30.843Z,1009.91
2018-06-02T12:36:30.843Z,1009.94
2018-06-02T12:37:30.821Z,1009.88
2018-06-02T12:38:30.810Z,1009.91
2018-06-02T12:39:30.800Z,1009.89
2018-06-02T12:40:30.789Z,1009.99
2018-06-02T12:41:30.787Z,1010.16
2018-06-02T12:42:30.765Z,1010.07
2018-06-02T12:43:30.756Z,1009.96
2018-06-02T12:44:30.747Z,1010.04
2018-06-02T12:45:30.736Z,1010.05
2018-06-02T12:46:30.735Z,1010.07
2018-06-02T12:47:30.713Z,1010.21
2018-06-02T12:48:30.705Z,1010.06
2018-06-02T12:49:30.691Z,1010.01
2018-06-02T12:50:30.681Z,1010.04
2018-06-02T12:51:30.670Z,1009.94
2018-06-02T12:52:30.671Z,1009.92
2018-06-02T12:53:30.650Z,1009.90
2018-06-02T12:54:30.640Z,1009.91
2018-06-02T12:55:30.629Z,1009.89
2018-06-02T12:56:30.871Z,1009.92
2018-06-02T12:57:30.606Z,1009.91
2018-06-02T12:58:30.598Z,1009.89
2018-06-02T12:59:30.587Z,1009.92
2018-06-02T13:00:30.573Z,1009.92
2018-06-02T13:01:30.565Z,1009.99
2018-06-02T13:02:30.827Z,1009.97
2018-06-02T13:03:30.546Z,1009.99
2018-06-02T13:04:30.534Z,1010.02
2018-06-02T13:05:30.523Z,1010.18
2018-06-02T13:06:30.513Z,1010.03
2018-06-02T13:07:30.501Z,1010.01
2018-06-02T13:08:30.501Z,1009.97
2018-06-02T13:09:30.487Z,1009.99
2018-06-02T13:10:30.469Z,1009.98
2018-06-02T13:11:30.459Z,1009.97
2018-06-02T13:12:30.452Z,1009.94
2018-06-02T13:13:30.449Z,1009.95
2018-06-02T13:14:30.460Z,1009.96
2018-06-02T13:15:30.421Z,1009.96
2018-06-02T13:16:30.408Z,1009.96
2018-06-02T13:17:30.397Z,1010.01
2018-06-02T13:18:30.397Z,1009.98
2018-06-02T13:19:30.376Z,1009.98
2018-06-02T13:20:30.365Z,1009.98
2018-06-02T13:21:30.355Z,1009.99
2018-06-02T13:22:30.344Z,1009.99
2018-06-02T13:23:30.352Z,1009.97
2018-06-02T13:24:30.325Z,1009.96
2018-06-02T13:25:30.313Z,1009.97
2018-06-02T13:26:30.306Z,1009.98
2018-06-02T13:27:30.287Z,1009.98
2018-06-02T13:28:30.280Z,1009.99
2018-06-02T13:29:30.279Z,1009.97
2018-06-02T13:30:30.258Z,1010.02
2018-06-02T13:31:30.249Z,1010.00
2018-06-02T13:32:30.239Z,1010.08
2018-06-02T13:33:30.226Z,1009.99
2018-06-02T13:34:30.230Z,1010.00
2018-06-02T13:35:30.206Z,1009.96
2018-06-02T13:36:30.195Z,1009.94
2018-06-02T13:37:30.185Z,1009.97
2018-06-02T13:38:30.175Z,1009.95
2018-06-02T13:39:30.164Z,1009.94
2018-06-02T13:40:30.163Z,1009.91
2018-06-02T13:41:30.143Z,1009.95
2018-06-02T13:42:30.132Z,1009.97
2018-06-02T13:43:30.123Z,1009.93
2018-06-02T13:44:30.115Z,1009.95
2018-06-02T13:45:30.109Z,1009.95
2018-06-02T13:46:30.092Z,1009.96
2018-06-02T13:47:30.083Z,1009.91
2018-06-02T13:48:30.068Z,1009.95
2018-06-02T13:49:30.061Z,1009.91
2018-06-02T13:50:30.090Z,1009.90
2018-06-02T13:51:30.110Z,1009.94
2018-06-02T13:52:30.057Z,1009.93
2018-06-02T13:53:30.055Z,1009.84
2018-06-02T13:54:30.010Z,1009.85
2018-06-02T13:55:30.098Z,1009.77
2018-06-02T13:56:32.280Z,1009.82
2018-06-02T13:57:29.993Z,1009.80
2018-06-02T13:58:29.996Z,1009.78
2018-06-02T13:59:30.042Z,1009.76
2018-06-02T14:00:29.987Z,1009.82
2018-06-02T14:01:29.998Z,1009.76
2018-06-02T14:02:30.003Z,1009.77
2018-06-02T14:03:29.965Z,1009.74
2018-06-02T14:04:30.770Z,1009.76
2018-06-02T14:05:31.269Z,1009.78
2018-06-02T14:06:30.070Z,1009.70
2018-06-02T14:07:29.904Z,1009.76
2018-06-02T14:08:30.782Z,1009.80
2018-06-02T14:09:30.123Z,1009.73
2018-06-02T14:10:35.190Z,1009.95
2018-06-02T14:11:29.890Z,1009.76
2018-06-02T14:12:29.901Z,1009.77
2018-06-02T14:13:31.729Z,1009.89
2018-06-02T14:15:29.798Z,1009.73
2018-06-02T14:16:29.784Z,1009.74
2018-06-02T14:17:29.788Z,1009.68
2018-06-02T14:18:29.835Z,1009.72
2018-06-02T14:19:29.754Z,1010.24
2018-06-02T14:20:29.744Z,1009.67
2018-06-02T14:21:29.735Z,1009.65
2018-06-02T14:22:29.756Z,1009.62
2018-06-02T14:23:29.712Z,1009.71
2018-06-02T14:24:29.706Z,1009.89
2018-06-02T14:25:51.922Z,1010.04
2018-06-02T14:26:33.312Z,1009.79
2018-06-02T14:27:30.436Z,1009.76
2018-06-02T14:28:30.813Z,1010.26
2018-06-02T14:29:29.705Z,1010.23
2018-06-02T14:30:29.753Z,1009.80
2018-06-02T14:31:29.642Z,1010.20
2018-06-02T14:32:29.638Z,1009.76
2018-06-02T14:33:29.645Z,1009.87
2018-06-02T14:34:46.779Z,1009.92
2018-06-02T14:35:34.774Z,1009.70
2018-06-02T14:36:32.810Z,1009.72
2018-06-02T14:37:29.704Z,1009.73
2018-06-02T14:38:30.293Z,1009.95
2018-06-02T14:39:31.296Z,1010.20
2018-06-02T14:40:32.776Z,1009.99
2018-06-02T14:41:29.819Z,1009.65
2018-06-02T14:42:29.558Z,1010.14
2018-06-02T14:43:30.023Z,1009.67
2018-06-02T14:44:29.796Z,1010.13
2018-06-02T14:45:29.671Z,1009.83
2018-06-02T14:46:30.780Z,1009.71
2018-06-02T14:47:29.583Z,1010.38
2018-06-02T14:48:33.808Z,1010.48
2018-06-02T14:49:29.596Z,1010.35
2018-06-02T14:50:29.490Z,1009.77
2018-06-02T14:51:29.482Z,1009.94
2018-06-02T14:52:29.476Z,1009.72
2018-06-02T14:53:29.465Z,1009.81
2018-06-02T14:54:29.472Z,1009.82
2018-06-02T14:55:29.450Z,1009.63
2018-06-02T14:56:29.444Z,1009.60
2018-06-02T14:57:29.436Z,1009.64
2018-06-02T14:58:29.428Z,1009.95
2018-06-02T14:59:29.421Z,1009.93
2018-06-02T15:00:29.424Z,1009.66
2018-06-02T15:01:29.406Z,1009.72
2018-06-02T15:02:29.397Z,1009.90
2018-06-02T15:03:29.391Z,1009.68
2018-06-02T15:04:29.383Z,1009.64
2018-06-02T15:05:29.389Z,1009.61
2018-06-02T15:06:29.369Z,1009.56
2018-06-02T15:07:29.363Z,1009.53
2018-06-02T15:08:29.356Z,1009.53
2018-06-02T15:09:29.348Z,1009.55
2018-06-02T15:10:29.352Z,1009.53
2018-06-02T15:11:29.333Z,1009.54
2018-06-02T15:12:29.326Z,1009.52
2018-06-02T15:13:29.316Z,1009.46
2018-06-02T15:14:29.312Z,1009.58
2018-06-02T15:15:29.570Z,1009.51
2018-06-02T15:16:29.294Z,1009.50
2018-06-02T15:17:29.283Z,1009.49
2018-06-02T15:18:29.276Z,1009.51
2018-06-02T15:19:29.266Z,1009.47
2018-06-02T15:20:29.257Z,1009.52
2018-06-02T15:21:29.257Z,1009.50
2018-06-02T15:22:29.244Z,1009.51
2018-06-02T15:23:29.231Z,1009.56
2018-06-02T15:24:29.221Z,1009.54
2018-06-02T15:25:29.211Z,1009.52
2018-06-02T15:26:29.220Z,1009.54
2018-06-02T15:27:29.194Z,1009.51
2018-06-02T15:28:29.184Z,1009.52
2018-06-02T15:29:29.173Z,1009.53
2018-06-02T15:30:29.163Z,1009.52
2018-06-02T15:31:29.152Z,1009.49
2018-06-02T15:32:29.155Z,1009.47
2018-06-02T15:33:29.132Z,1009.42
2018-06-02T15:34:29.123Z,1009.40
2018-06-02T15:35:29.115Z,1009.37
2018-06-02T15:36:29.102Z,1009.38
2018-06-02T15:37:29.101Z,1009.39
2018-06-02T15:38:29.088Z,1009.40
2018-06-02T15:39:29.073Z,1009.41
2018-06-02T15:40:29.062Z,1009.45
2018-06-02T15:41:29.052Z,1009.45
2018-06-02T15:42:29.053Z,1009.42
2018-06-02T15:43:29.031Z,1009.43
2018-06-02T15:44:29.021Z,1009.41
2018-06-02T15:45:29.013Z,1009.39
2018-06-02T15:46:28.999Z,1009.36
2018-06-02T15:47:29.004Z,1009.36
2018-06-02T15:48:28.977Z,1009.34
2018-06-02T15:49:28.965Z,1009.37
2018-06-02T15:50:28.961Z,1009.34
2018-06-02T15:51:28.945Z,1009.32
2018-06-02T15:52:28.936Z,1009.34
2018-06-02T15:53:28.935Z,1009.30
2018-06-02T15:54:28.914Z,1009.28
2018-06-02T15:55:28.902Z,1009.26
2018-06-02T15:56:28.891Z,1009.30
2018-06-02T15:57:28.880Z,1009.33
2018-06-02T15:58:28.883Z,1009.30
2018-06-02T15:59:28.863Z,1009.30
2018-06-02T16:00:28.847Z,1009.29
2018-06-02T16:01:28.836Z,1009.30
2018-06-02T16:02:28.825Z,1009.33
2018-06-02T16:03:28.851Z,1009.30
2018-06-02T16:04:28.813Z,1009.31
2018-06-02T16:05:28.791Z,1009.35
2018-06-02T16:06:28.783Z,1009.33
2018-06-02T16:07:28.768Z,1009.31
2018-06-02T16:08:28.759Z,1009.34
2018-06-02T16:09:28.756Z,1009.31
2018-06-02T16:10:28.735Z,1009.33
2018-06-02T16:11:28.723Z,1009.33
2018-06-02T16:12:28.713Z,1009.34
2018-06-02T16:13:28.701Z,1009.34
2018-06-02T16:14:28.704Z,1009.40
2018-06-02T16:15:28.679Z,1009.34
2018-06-02T16:16:28.667Z,1009.34
2018-06-02T16:17:28.654Z,1009.33
2018-06-02T16:18:28.644Z,1009.34
2018-06-02T16:19:28.635Z,1009.29
2018-06-02T16:20:28.634Z,1009.32
2018-06-02T16:21:28.611Z,1009.29
2018-06-02T16:22:28.601Z,1009.33
2018-06-02T16:23:28.599Z,1009.29
2018-06-02T16:24:28.579Z,1009.29
2018-06-02T16:25:28.615Z,1009.32
2018-06-02T16:26:28.556Z,1009.59
2018-06-02T16:27:28.545Z,1009.34
2018-06-02T16:28:28.535Z,1009.40
2018-06-02T16:29:28.523Z,1009.40
2018-06-02T16:30:28.516Z,1009.41
2018-06-02T16:31:28.516Z,1009.35
2018-06-02T16:32:28.492Z,1009.39
2018-06-02T16:33:28.481Z,1009.41
2018-06-02T16:34:28.476Z,1009.35
2018-06-02T16:35:28.460Z,1009.35
2018-06-02T16:36:28.490Z,1009.33
2018-06-02T16:37:28.439Z,1009.34
2018-06-02T16:38:28.428Z,1009.36
2018-06-02T16:39:28.418Z,1009.30
2018-06-02T16:40:28.408Z,1009.52
2018-06-02T16:41:28.409Z,1009.30
2018-06-02T16:42:28.386Z,1009.35
2018-06-02T16:43:28.376Z,1009.33
2018-06-02T16:44:28.367Z,1009.34
2018-06-02T16:45:28.357Z,1009.32
2018-06-02T16:46:28.362Z,1009.32
2018-06-02T16:47:28.335Z,1009.31
2018-06-02T16:48:28.325Z,1009.64
2018-06-02T16:49:28.315Z,1009.53
2018-06-02T16:50:28.303Z,1009.32
2018-06-02T16:51:28.295Z,1009.30
2018-06-02T16:52:28.295Z,1009.25
2018-06-02T16:53:28.275Z,1009.26
2018-06-02T16:54:28.264Z,1009.24
2018-06-02T16:55:28.260Z,1009.29
2018-06-02T16:56:28.245Z,1009.27
2018-06-02T16:57:28.243Z,1009.28
2018-06-02T16:58:28.224Z,1009.53
2018-06-02T16:59:28.213Z,1009.24
2018-06-02T17:00:28.204Z,1009.60
2018-06-02T17:01:28.193Z,1009.19
2018-06-02T17:02:28.199Z,1009.19
2018-06-02T17:03:28.174Z,1009.19
2018-06-02T17:04:28.170Z,1009.22
2018-06-02T17:05:28.156Z,1009.22
2018-06-02T17:06:28.144Z,1009.26
2018-06-02T17:07:28.134Z,1009.20
2018-06-02T17:08:28.142Z,1009.32
2018-06-02T17:09:28.115Z,1009.46
2018-06-02T17:10:28.104Z,1009.51
2018-06-02T17:11:28.096Z,1009.58
2018-06-02T17:12:28.086Z,1009.25
2018-06-02T17:13:28.094Z,1009.28
2018-06-02T17:14:28.067Z,1009.23
2018-06-02T17:15:28.055Z,1009.24
2018-06-02T17:16:28.048Z,1009.40
2018-06-02T17:17:28.040Z,1009.45
2018-06-02T17:18:28.045Z,1009.46
2018-06-02T17:19:28.025Z,1009.27
2018-06-02T17:20:28.028Z,1009.52
2018-06-02T17:21:28.006Z,1009.57
2018-06-02T17:22:27.993Z,1009.56
2018-06-02T17:23:27.985Z,1009.53
2018-06-02T17:24:27.989Z,1009.60
2018-06-02T17:25:27.969Z,1009.55
2018-06-02T17:26:27.961Z,1009.57
2018-06-02T17:27:27.955Z,1009.36
2018-06-02T17:28:27.945Z,1009.26
2018-06-02T17:29:27.950Z,1009.28
2018-06-02T17:30:27.931Z,1009.25
2018-06-02T17:31:27.924Z,1009.28
2018-06-02T17:32:27.915Z,1009.31
2018-06-02T17:33:27.908Z,1009.28
2018-06-02T17:34:27.912Z,1009.29
2018-06-02T17:35:27.895Z,1009.26
2018-06-02T17:36:27.884Z,1009.24
2018-06-02T17:37:27.873Z,1009.32
2018-06-02T17:38:27.865Z,1009.37
2018-06-02T17:39:28.426Z,1009.45
2018-06-02T17:40:28.388Z,1009.48
2018-06-02T17:41:28.406Z,1009.56
2018-06-02T17:42:27.867Z,1009.55
2018-06-02T17:43:29.346Z,1009.61
2018-06-02T17:44:27.996Z,1009.58
2018-06-02T17:45:27.903Z,1009.57
2018-06-02T17:46:27.847Z,1009.57
2018-06-02T17:47:28.346Z,1009.60
2018-06-02T17:48:27.816Z,1009.60
2018-06-02T17:49:28.372Z,1009.56
2018-06-02T17:50:28.860Z,1009.56
2018-06-02T17:51:27.890Z,1009.51
2018-06-02T17:52:28.347Z,1009.50
2018-06-02T17:53:29.343Z,1009.40
2018-06-02T17:54:27.847Z,1009.35
2018-06-02T17:55:28.447Z,1009.40
2018-06-02T17:56:28.419Z,1009.40
2018-06-02T17:57:27.848Z,1009.37
2018-06-02T17:58:27.793Z,1009.38
2018-06-02T17:59:27.682Z,1009.43
2018-06-02T18:00:27.678Z,1009.43
2018-06-02T18:01:27.676Z,1009.46
2018-06-02T18:02:27.906Z,1009.40
2018-06-02T18:03:28.872Z,1009.43
2018-06-02T18:04:28.596Z,1009.42
2018-06-02T18:05:28.369Z,1009.45
2018-06-02T18:06:27.871Z,1009.41
2018-06-02T18:07:27.751Z,1009.43
2018-06-02T18:08:29.357Z,1009.44
2018-06-02T18:09:27.802Z,1009.50
2018-06-02T18:10:28.532Z,1009.43
2018-06-02T18:11:27.662Z,1009.45
2018-06-02T18:12:27.623Z,1009.45
2018-06-02T18:13:27.730Z,1009.45
2018-06-02T18:14:28.869Z,1009.46
2018-06-02T18:15:28.416Z,1009.44
2018-06-02T18:16:32.355Z,1009.44
2018-06-02T18:17:28.559Z,1009.41
2018-06-02T18:18:27.600Z,1009.44
2018-06-02T18:19:27.468Z,1009.43
2018-06-02T18:20:27.463Z,1009.40
2018-06-02T18:21:27.448Z,1009.39
2018-06-02T18:22:27.450Z,1009.40
2018-06-02T18:23:27.421Z,1009.37
2018-06-02T18:24:27.414Z,1009.41
2018-06-02T18:25:27.401Z,1009.38
2018-06-02T18:26:27.401Z,1009.42
2018-06-02T18:27:27.397Z,1009.41
2018-06-02T18:28:27.364Z,1009.41
2018-06-02T18:29:27.351Z,1009.44
2018-06-02T18:30:27.341Z,1009.38
2018-06-02T18:31:27.328Z,1009.40
2018-06-02T18:32:27.325Z,1009.41
2018-06-02T18:33:27.301Z,1009.41
2018-06-02T18:34:27.290Z,1009.40
2018-06-02T18:35:27.276Z,1009.38
2018-06-02T18:36:27.305Z,1009.40
2018-06-02T18:37:27.251Z,1009.39
2018-06-02T18:38:27.255Z,1009.39
2018-06-02T18:39:27.224Z,1009.45
2018-06-02T18:40:27.213Z,1009.43
2018-06-02T18:41:27.199Z,1009.40
2018-06-02T18:42:27.196Z,1009.38
2018-06-02T18:43:27.174Z,1009.44
2018-06-02T18:44:27.161Z,1009.43
2018-06-02T18:45:27.146Z,1009.43
2018-06-02T18:46:27.134Z,1009.40
2018-06-02T18:47:27.142Z,1009.41
2018-06-02T18:48:27.109Z,1009.39
2018-06-02T18:49:27.098Z,1009.35
2018-06-02T18:50:27.082Z,1009.37
2018-06-02T18:51:27.072Z,1009.38
2018-06-02T18:52:27.061Z,1009.32
2018-06-02T18:53:27.062Z,1009.31
2018-06-02T18:54:27.034Z,1009.33
2018-06-02T18:55:27.019Z,1009.33
2018-06-02T18:56:27.004Z,1009.35
2018-06-02T18:57:26.991Z,1009.34
2018-06-02T18:58:26.990Z,1009.35
2018-06-02T18:59:26.961Z,1009.36
2018-06-02T19:00:26.952Z,1009.32
2018-06-02T19:01:26.934Z,1009.34
2018-06-02T19:02:26.923Z,1009.31
2018-06-02T19:03:26.917Z,1009.31
2018-06-02T19:04:26.896Z,1009.30
2018-06-02T19:05:26.889Z,1009.25
2018-06-02T19:06:26.868Z,1009.30
2018-06-02T19:07:26.900Z,1009.30
2018-06-02T19:08:27.096Z,1009.33
2018-06-02T19:09:26.828Z,1009.31
2018-06-02T19:10:26.813Z,1009.28
2018-06-02T19:11:26.801Z,1009.27
2018-06-02T19:12:26.788Z,1009.32
2018-06-02T19:13:26.775Z,1009.30
2018-06-02T19:14:26.770Z,1009.34
2018-06-02T19:15:26.755Z,1009.28
2018-06-02T19:16:26.733Z,1009.32
2018-06-02T19:17:26.717Z,1009.37
2018-06-02T19:18:26.706Z,1009.34
2018-06-02T19:19:26.705Z,1009.34
2018-06-02T19:20:26.681Z,1009.36
2018-06-02T19:21:26.663Z,1009.36
2018-06-02T19:22:26.649Z,1009.36
2018-06-02T19:23:26.635Z,1009.38
2018-06-02T19:24:26.643Z,1009.38
2018-06-02T19:25:26.609Z,1009.39
2018-06-02T19:26:26.595Z,1009.43
2018-06-02T19:27:26.581Z,1009.38
2018-06-02T19:28:26.568Z,1009.45
2018-06-02T19:29:26.822Z,1009.44
2018-06-02T19:30:26.543Z,1009.46
2018-06-02T19:31:26.526Z,1009.44
2018-06-02T19:32:26.511Z,1009.46
2018-06-02T19:33:26.496Z,1009.47
2018-06-02T19:34:26.487Z,1009.50
2018-06-02T19:35:26.533Z,1009.53
2018-06-02T19:36:26.456Z,1009.56
2018-06-02T19:37:26.439Z,1009.58
2018-06-02T19:38:26.429Z,1009.57
2018-06-02T19:39:26.415Z,1009.57
2018-06-02T19:40:26.412Z,1009.58
2018-06-02T19:41:26.382Z,1009.59
2018-06-02T19:42:26.370Z,1009.57
2018-06-02T19:43:26.359Z,1009.61
2018-06-02T19:44:26.344Z,1009.64
2018-06-02T19:45:26.340Z,1009.64
2018-06-02T19:46:26.313Z,1009.65
2018-06-02T19:47:26.300Z,1009.69
2018-06-02T19:48:26.286Z,1009.71
2018-06-02T19:49:26.270Z,1009.70
2018-06-02T19:50:26.257Z,1009.73
2018-06-02T19:51:26.257Z,1009.69
2018-06-02T19:52:26.221Z,1009.71
2018-06-02T19:53:26.212Z,1009.75
2018-06-02T19:54:26.199Z,1009.75
2018-06-02T19:55:26.185Z,1009.77
2018-06-02T19:56:26.180Z,1009.74
2018-06-02T19:57:26.158Z,1009.78
2018-06-02T19:58:26.142Z,1009.76
2018-06-02T19:59:26.126Z,1009.79
2018-06-02T20:00:26.112Z,1009.78
2018-06-02T20:01:26.159Z,1009.78
2018-06-02T20:02:26.083Z,1009.77
2018-06-02T20:03:26.071Z,1009.79
2018-06-02T20:04:26.055Z,1009.80
2018-06-02T20:05:26.039Z,1009.79
2018-06-02T20:06:26.301Z,1009.81
2018-06-02T20:07:26.011Z,1009.83
2018-06-02T20:08:25.997Z,1009.81
2018-06-02T20:09:25.980Z,1009.81
2018-06-02T20:10:25.973Z,1009.82
2018-06-02T20:11:25.952Z,1009.82
2018-06-02T20:12:25.948Z,1009.83
2018-06-02T20:13:25.921Z,1009.85
2018-06-02T20:14:25.909Z,1009.84
2018-06-02T20:15:25.894Z,1009.89
2018-06-02T20:16:25.882Z,1009.88
2018-06-02T20:17:25.872Z,1009.85
2018-06-02T20:18:25.848Z,1009.85
2018-06-02T20:19:25.832Z,1009.86
2018-06-02T20:20:25.822Z,1009.88
2018-06-02T20:21:25.804Z,1009.90
2018-06-02T20:22:25.800Z,1009.91
2018-06-02T20:23:25.778Z,1009.91
2018-06-02T20:24:25.758Z,1009.91
2018-06-02T20:25:25.742Z,1009.89
2018-06-02T20:26:25.730Z,1009.95
2018-06-02T20:27:25.725Z,1009.93
2018-06-02T20:28:25.699Z,1009.94
2018-06-02T20:29:25.688Z,1009.93
2018-06-02T20:30:25.668Z,1009.96
2018-06-02T20:31:25.656Z,1009.98
2018-06-02T20:32:25.658Z,1010.00
2018-06-02T20:33:25.624Z,1010.03
2018-06-02T20:34:25.609Z,1010.02
2018-06-02T20:35:25.595Z,1010.08
2018-06-02T20:36:25.580Z,1010.10
2018-06-02T20:37:25.563Z,1010.07
2018-06-02T20:38:25.557Z,1010.05
2018-06-02T20:39:25.533Z,1010.05
2018-06-02T20:40:25.519Z,1010.09
2018-06-02T20:41:25.504Z,1010.09
2018-06-02T20:42:25.529Z,1010.11
2018-06-02T20:43:25.482Z,1010.11
2018-06-02T20:44:25.471Z,1010.13
2018-06-02T20:45:25.441Z,1010.14
2018-06-02T20:46:25.427Z,1010.18
2018-06-02T20:47:25.412Z,1010.18
2018-06-02T20:48:25.674Z,1010.22
2018-06-02T20:49:25.379Z,1010.21
2018-06-02T20:50:25.366Z,1010.23
2018-06-02T20:51:25.350Z,1010.18
2018-06-02T20:52:25.335Z,1010.19
2018-06-02T20:53:25.320Z,1010.21
2018-06-02T20:54:25.318Z,1010.24
2018-06-02T20:55:25.290Z,1010.27
2018-06-02T20:56:25.274Z,1010.27
2018-06-02T20:57:25.262Z,1010.30
2018-06-02T20:58:25.252Z,1010.28
2018-06-02T20:59:25.228Z,1010.31
2018-06-02T21:00:25.214Z,1010.31
2018-06-02T21:01:25.198Z,1010.32
2018-06-02T21:02:25.181Z,1010.36
2018-06-02T21:03:25.182Z,1010.34
2018-06-02T21:04:25.151Z,1010.37
2018-06-02T21:05:25.135Z,1010.34
2018-06-02T21:06:25.120Z,1010.34
2018-06-02T21:07:25.103Z,1010.37
2018-06-02T21:08:25.090Z,1010.37
2018-06-02T21:09:25.084Z,1010.38
2018-06-02T21:10:25.058Z,1010.41
2018-06-02T21:11:25.044Z,1010.41
2018-06-02T21:12:25.028Z,1010.43
2018-06-02T21:13:25.017Z,1010.43
2018-06-02T21:14:25.005Z,1010.41
2018-06-02T21:15:24.981Z,1010.45
2018-06-02T21:16:24.971Z,1010.42
2018-06-02T21:17:24.948Z,1010.40
2018-06-02T21:18:24.935Z,1010.40
2018-06-02T21:19:24.929Z,1010.37
2018-06-02T21:20:24.903Z,1010.39
2018-06-02T21:21:24.886Z,1010.41
2018-06-02T21:22:24.871Z,1010.43
2018-06-02T21:23:24.856Z,1010.43
2018-06-02T21:24:24.879Z,1010.46
2018-06-02T21:25:24.825Z,1010.47
2018-06-02T21:26:24.808Z,1010.50
2018-06-02T21:27:24.794Z,1010.47
2018-06-02T21:28:24.780Z,1010.48
2018-06-02T21:29:24.762Z,1010.49
2018-06-02T21:30:24.756Z,1010.51
2018-06-02T21:31:24.731Z,1010.53
2018-06-02T21:32:24.716Z,1010.55
2018-06-02T21:33:24.701Z,1010.54
2018-06-02T21:34:24.684Z,1010.56
2018-06-02T21:35:24.678Z,1010.52
2018-06-02T21:36:24.668Z,1010.54
2018-06-02T21:37:24.637Z,1010.55
2018-06-02T21:38:24.622Z,1010.54
2018-06-02T21:39:24.608Z,1010.49
2018-06-02T21:40:24.649Z,1010.52
2018-06-02T21:41:24.573Z,1010.54
2018-06-02T21:42:24.575Z,1010.51
2018-06-02T21:43:24.564Z,1010.50
2018-06-02T21:44:24.534Z,1010.51
2018-06-02T21:45:24.546Z,1010.52
2018-06-02T21:46:24.519Z,1010.51
2018-06-02T21:47:24.491Z,1010.52
2018-06-02T21:48:24.472Z,1010.48
2018-06-02T21:49:24.504Z,1010.49
2018-06-02T21:50:24.445Z,1010.53
2018-06-02T21:51:24.457Z,1010.51
2018-06-02T21:52:24.407Z,1010.53
2018-06-02T21:53:24.389Z,1010.51
2018-06-02T21:54:24.380Z,1010.51
2018-06-02T21:55:24.391Z,1010.53
2018-06-02T21:56:24.387Z,1010.53
2018-06-02T21:57:24.325Z,1010.54
2018-06-02T21:58:24.321Z,1010.55
2018-06-02T21:59:24.297Z,1010.58
2018-06-02T22:00:24.283Z,1010.62
2018-06-02T22:01:24.264Z,1010.60
2018-06-02T22:02:24.265Z,1010.61